createdAt,value
2018-02-07T00:00:06.099Z,-5.40
2018-02-07T00:01:05.599Z,-5.40
2018-02-07T00:02:05.871Z,-5.40
2018-02-07T00:03:07.796Z,-5.40
2018-02-07T00:04:05.215Z,-5.50
2018-02-07T00:05:06.107Z,-5.40
2018-02-07T00:06:05.504Z,-5.40
2018-02-07T00:07:06.220Z,-5.40
2018-02-07T00:08:05.924Z,-4.80
2018-02-07T00:09:05.340Z,-5.50
2018-02-07T00:10:08.429Z,-5.50
2018-02-07T00:11:05.935Z,-5.50
2018-02-07T00:12:10.777Z,-5.50
2018-02-07T00:13:07.947Z,-5.50
2018-02-07T00:14:05.351Z,-5.50
2018-02-07T00:15:05.805Z,-5.50
2018-02-07T00:16:05.589Z,-5.50
2018-02-07T00:17:05.454Z,-5.50
2018-02-07T00:18:05.620Z,-5.50
2018-02-07T00:19:10.343Z,-5.60
2018-02-07T00:20:05.965Z,-5.60
2018-02-07T00:21:08.098Z,-5.60
2018-02-07T00:22:05.739Z,-5.60
2018-02-07T00:23:05.525Z,-5.60
2018-02-07T00:24:06.104Z,-5.60
2018-02-07T00:25:07.880Z,-5.60
2018-02-07T00:26:07.834Z,-5.70
2018-02-07T00:27:07.900Z,-5.60
2018-02-07T00:28:05.511Z,-5.60
2018-02-07T00:29:05.627Z,-5.60
2018-02-07T00:30:13.478Z,-5.70
2018-02-07T00:31:08.690Z,-5.70
2018-02-07T00:32:12.800Z,-5.70
2018-02-07T00:33:06.349Z,-5.70
2018-02-07T00:34:18.654Z,-5.70
2018-02-07T00:35:10.272Z,-5.70
2018-02-07T00:36:05.470Z,-5.70
2018-02-07T00:37:05.606Z,-5.70
2018-02-07T00:38:10.670Z,-5.70
2018-02-07T00:39:05.573Z,-5.80
2018-02-07T00:40:05.515Z,-5.70
2018-02-07T00:41:09.381Z,-5.80
2018-02-07T00:42:06.073Z,-5.80
2018-02-07T00:43:05.477Z,-5.80
2018-02-07T00:44:09.007Z,-5.80
2018-02-07T00:45:10.453Z,-5.80
2018-02-07T00:46:05.957Z,-5.80
2018-02-07T00:47:05.719Z,-5.80
2018-02-07T00:48:05.170Z,-5.80
2018-02-07T00:49:05.881Z,-5.80
2018-02-07T00:50:09.949Z,-5.90
2018-02-07T00:51:08.812Z,-5.90
2018-02-07T00:52:05.341Z,-5.90
2018-02-07T00:53:08.318Z,-5.90
2018-02-07T00:54:05.785Z,-6.00
2018-02-07T00:55:10.463Z,-5.90
2018-02-07T00:56:08.613Z,-5.90
2018-02-07T00:57:06.056Z,-5.90
2018-02-07T00:58:05.840Z,-5.90
2018-02-07T00:59:08.566Z,-6.00
2018-02-07T01:00:11.085Z,-6.00
2018-02-07T01:01:08.841Z,-6.00
2018-02-07T01:02:05.343Z,-6.00
2018-02-07T01:03:05.882Z,-6.00
2018-02-07T01:04:05.453Z,-6.00
2018-02-07T01:05:09.010Z,-6.10
2018-02-07T01:06:08.001Z,-6.10
2018-02-07T01:07:08.059Z,-6.10
2018-02-07T01:08:08.020Z,-6.10
2018-02-07T01:09:05.217Z,-6.20
2018-02-07T01:10:11.125Z,-6.10
2018-02-07T01:11:12.576Z,-6.20
2018-02-07T01:12:09.474Z,-6.20
2018-02-07T01:13:05.962Z,-6.20
2018-02-07T01:14:05.644Z,-6.20
2018-02-07T01:15:09.326Z,-6.20
2018-02-07T01:16:05.862Z,-6.20
2018-02-07T01:17:05.596Z,-6.20
2018-02-07T01:18:05.875Z,-6.20
2018-02-07T01:19:05.861Z,-6.20
2018-02-07T01:20:09.933Z,-6.20
2018-02-07T01:21:05.510Z,-6.20
2018-02-07T01:22:05.226Z,-6.20
2018-02-07T01:23:05.994Z,-6.20
2018-02-07T01:24:06.093Z,-6.20
2018-02-07T01:25:10.663Z,-6.20
2018-02-07T01:26:11.178Z,-6.10
2018-02-07T01:27:05.832Z,-6.20
2018-02-07T01:28:08.728Z,-6.20
2018-02-07T01:29:08.646Z,-6.20
2018-02-07T01:30:05.337Z,-6.20
2018-02-07T01:31:08.225Z,-6.20
2018-02-07T01:32:05.900Z,-6.10
2018-02-07T01:33:08.729Z,-6.20
2018-02-07T01:34:05.316Z,-6.20
2018-02-07T01:35:10.500Z,-6.20
2018-02-07T01:36:05.918Z,-6.20
2018-02-07T01:37:06.176Z,-6.20
2018-02-07T01:38:11.079Z,-6.20
2018-02-07T01:39:08.088Z,-6.20
2018-02-07T01:40:08.230Z,-6.20
2018-02-07T01:41:05.798Z,-6.30
2018-02-07T01:42:05.570Z,-6.20
2018-02-07T01:43:06.128Z,-6.30
2018-02-07T01:44:05.565Z,-6.40
2018-02-07T01:45:05.893Z,-6.30
2018-02-07T01:46:05.307Z,-6.40
2018-02-07T01:47:05.971Z,-6.40
2018-02-07T01:48:06.082Z,-6.40
2018-02-07T01:49:05.589Z,-6.40
2018-02-07T01:50:11.143Z,-6.50
2018-02-07T01:51:07.703Z,-6.50
2018-02-07T01:52:05.244Z,-6.50
2018-02-07T01:53:07.800Z,-6.50
2018-02-07T01:54:06.074Z,-6.50
2018-02-07T01:55:07.143Z,-6.40
2018-02-07T01:56:05.273Z,-6.50
2018-02-07T01:57:05.379Z,-6.50
2018-02-07T01:58:05.726Z,-6.50
2018-02-07T01:59:05.448Z,-6.50
2018-02-07T02:00:05.269Z,-6.50
2018-02-07T02:01:05.816Z,-6.50
2018-02-07T02:02:09.094Z,-6.50
2018-02-07T02:03:05.856Z,-6.60
2018-02-07T02:04:08.687Z,-6.60
2018-02-07T02:05:11.085Z,-6.60
2018-02-07T02:06:06.031Z,-6.60
2018-02-07T02:07:05.330Z,-6.60
2018-02-07T02:08:05.268Z,-6.60
2018-02-07T02:09:05.510Z,-6.60
2018-02-07T02:10:05.598Z,-6.60
2018-02-07T02:11:10.325Z,-6.70
2018-02-07T02:12:05.759Z,-6.60
2018-02-07T02:13:08.058Z,-6.70
2018-02-07T02:14:05.561Z,-6.70
2018-02-07T02:15:06.264Z,-6.70
2018-02-07T02:16:05.306Z,-6.70
2018-02-07T02:17:08.024Z,-6.60
2018-02-07T02:18:08.790Z,-6.70
2018-02-07T02:19:10.453Z,-6.70
2018-02-07T02:20:06.060Z,-0.30
2018-02-07T02:21:05.744Z,-6.60
2018-02-07T02:22:05.677Z,-6.70
2018-02-07T02:23:05.739Z,-6.70
2018-02-07T02:24:07.817Z,-6.70
2018-02-07T02:25:05.285Z,-6.70
2018-02-07T02:26:05.477Z,-6.80
2018-02-07T02:27:10.320Z,-6.80
2018-02-07T02:28:05.882Z,-6.80
2018-02-07T02:29:10.406Z,-6.80
2018-02-07T02:30:11.113Z,-6.80
2018-02-07T02:31:05.743Z,-6.80
2018-02-07T02:32:05.713Z,-6.80
2018-02-07T02:33:06.303Z,-6.80
2018-02-07T02:34:05.980Z,-6.80
2018-02-07T02:35:08.271Z,-6.80
2018-02-07T02:36:05.876Z,-6.80
2018-02-07T02:37:09.405Z,-6.80
2018-02-07T02:38:06.016Z,-6.90
2018-02-07T02:39:09.709Z,-6.90
2018-02-07T02:40:05.285Z,-6.90
2018-02-07T02:41:11.185Z,-6.90
2018-02-07T02:42:05.733Z,-6.90
2018-02-07T02:43:06.067Z,-6.90
2018-02-07T02:44:05.206Z,-6.90
2018-02-07T02:45:05.384Z,-6.90
2018-02-07T02:46:05.251Z,-6.90
2018-02-07T02:47:05.509Z,-6.90
2018-02-07T02:48:06.112Z,-6.90
2018-02-07T02:49:07.950Z,-6.90
2018-02-07T02:50:07.948Z,-6.90
2018-02-07T02:51:05.982Z,-6.90
2018-02-07T02:52:05.668Z,-6.90
2018-02-07T02:53:05.728Z,-6.80
2018-02-07T02:54:05.528Z,-6.90
2018-02-07T02:55:09.028Z,-6.90
2018-02-07T02:56:08.880Z,-6.90
2018-02-07T02:57:05.536Z,-6.90
2018-02-07T02:58:10.858Z,-7.00
2018-02-07T02:59:07.974Z,-7.00
2018-02-07T03:00:06.226Z,-7.00
2018-02-07T03:01:10.987Z,-7.00
2018-02-07T03:02:11.117Z,-7.00
2018-02-07T03:03:08.361Z,-7.10
2018-02-07T03:04:05.937Z,-7.10
2018-02-07T03:05:11.012Z,-7.10
2018-02-07T03:06:08.041Z,-7.10
2018-02-07T03:07:10.605Z,-7.10
2018-02-07T03:08:08.011Z,-7.10
2018-02-07T03:09:10.672Z,-7.10
2018-02-07T03:10:07.780Z,-7.10
2018-02-07T03:11:05.213Z,-7.10
2018-02-07T03:12:09.161Z,-7.10
2018-02-07T03:13:05.733Z,-7.10
2018-02-07T03:14:09.618Z,-7.10
2018-02-07T03:15:06.133Z,-7.10
2018-02-07T03:16:11.273Z,-7.10
2018-02-07T03:17:09.514Z,-7.10
2018-02-07T03:18:06.068Z,-7.10
2018-02-07T03:19:08.234Z,-7.10
2018-02-07T03:20:08.215Z,-7.10
2018-02-07T03:21:08.288Z,-7.10
2018-02-07T03:22:11.152Z,-7.10
2018-02-07T03:23:07.849Z,-7.10
2018-02-07T03:24:10.477Z,-7.10
2018-02-07T03:25:09.671Z,-7.10
2018-02-07T03:26:06.201Z,-7.10
2018-02-07T03:27:06.005Z,-7.10
2018-02-07T03:28:05.551Z,-7.10
2018-02-07T03:29:08.785Z,-7.10
2018-02-07T03:30:05.185Z,-7.10
2018-02-07T03:31:05.381Z,-7.10
2018-02-07T03:32:09.053Z,-7.10
2018-02-07T03:33:05.618Z,-7.10
2018-02-07T03:34:21.013Z,-7.20
2018-02-07T03:35:08.113Z,-7.20
2018-02-07T03:36:05.362Z,-7.20
2018-02-07T03:37:08.454Z,-7.20
2018-02-07T03:38:10.926Z,-7.30
2018-02-07T03:39:05.448Z,-7.20
2018-02-07T03:40:05.468Z,-7.30
2018-02-07T03:41:05.316Z,-7.30
2018-02-07T03:42:11.026Z,-7.30
2018-02-07T03:43:08.148Z,-7.40
2018-02-07T03:44:09.497Z,-7.40
2018-02-07T03:45:05.890Z,-7.40
2018-02-07T03:46:06.153Z,-7.40
2018-02-07T03:47:05.433Z,-7.40
2018-02-07T03:48:08.077Z,-7.40
2018-02-07T03:49:08.838Z,-7.40
2018-02-07T03:50:05.296Z,-7.40
2018-02-07T03:51:05.390Z,-7.40
2018-02-07T03:52:10.517Z,-7.40
2018-02-07T03:53:05.832Z,-7.40
2018-02-07T03:54:05.869Z,-7.40
2018-02-07T03:55:05.799Z,-7.40
2018-02-07T03:56:05.509Z,-7.40
2018-02-07T03:57:06.192Z,-7.40
2018-02-07T03:58:05.183Z,-7.40
2018-02-07T03:59:11.217Z,-7.40
2018-02-07T04:00:10.678Z,-7.40
2018-02-07T04:01:10.797Z,-7.40
2018-02-07T04:02:05.837Z,-7.50
2018-02-07T04:03:07.930Z,-7.40
2018-02-07T04:04:10.988Z,-7.40
2018-02-07T04:05:05.476Z,-7.40
2018-02-07T04:06:05.310Z,-7.40
2018-02-07T04:07:11.078Z,-7.40
2018-02-07T04:08:05.336Z,-7.40
2018-02-07T04:09:05.364Z,-7.40
2018-02-07T04:10:05.531Z,-7.40
2018-02-07T04:11:06.068Z,-7.40
2018-02-07T04:12:05.407Z,-7.40
2018-02-07T04:13:11.107Z,-7.50
2018-02-07T04:14:10.615Z,-7.50
2018-02-07T04:15:09.600Z,-7.40
2018-02-07T04:16:06.147Z,-7.50
2018-02-07T04:17:08.005Z,-7.50
2018-02-07T04:18:05.424Z,-7.50
2018-02-07T04:19:08.557Z,-7.50
2018-02-07T04:20:08.515Z,-7.50
2018-02-07T04:21:05.973Z,-7.50
2018-02-07T04:22:05.907Z,-7.50
2018-02-07T04:23:10.561Z,-7.50
2018-02-07T04:24:06.011Z,-7.50
2018-02-07T04:25:05.681Z,-7.50
2018-02-07T04:26:05.655Z,-7.50
2018-02-07T04:27:05.737Z,-7.50
2018-02-07T04:28:05.608Z,-7.50
2018-02-07T04:29:06.828Z,-7.50
2018-02-07T04:30:05.443Z,-7.50
2018-02-07T04:31:08.551Z,-7.50
2018-02-07T04:32:05.388Z,-7.60
2018-02-07T04:33:06.003Z,-7.60
2018-02-07T04:34:09.964Z,-7.60
2018-02-07T04:35:05.539Z,-7.60
2018-02-07T04:36:05.572Z,-7.60
2018-02-07T04:37:10.706Z,-7.60
2018-02-07T04:38:06.087Z,-7.70
2018-02-07T04:39:05.552Z,-7.60
2018-02-07T04:40:05.466Z,-7.60
2018-02-07T04:41:07.826Z,-7.70
2018-02-07T04:42:05.252Z,-7.70
2018-02-07T04:43:10.963Z,-7.60
2018-02-07T04:44:05.430Z,-7.70
2018-02-07T04:45:05.463Z,-7.70
2018-02-07T04:46:06.102Z,-7.70
2018-02-07T04:47:05.966Z,-7.70
2018-02-07T04:48:08.151Z,-7.70
2018-02-07T04:49:05.624Z,-7.70
2018-02-07T04:50:07.648Z,-7.70
2018-02-07T04:51:06.067Z,-7.70
2018-02-07T04:52:10.766Z,-7.70
2018-02-07T04:53:07.762Z,-7.70
2018-02-07T04:54:08.475Z,-7.70
2018-02-07T04:55:08.122Z,-7.80
2018-02-07T04:56:05.722Z,-7.70
2018-02-07T04:57:07.992Z,-7.80
2018-02-07T04:58:09.719Z,-7.80
2018-02-07T04:59:05.315Z,-7.80
2018-02-07T05:00:10.855Z,-7.80
2018-02-07T05:01:05.286Z,-7.80
2018-02-07T05:02:05.644Z,-7.80
2018-02-07T05:03:05.305Z,-7.80
2018-02-07T05:04:05.299Z,-7.80
2018-02-07T05:05:09.019Z,-7.80
2018-02-07T05:06:05.511Z,-7.80
2018-02-07T05:07:10.723Z,-7.70
2018-02-07T05:08:05.933Z,-7.70
2018-02-07T05:09:09.622Z,-7.70
2018-02-07T05:10:06.087Z,-7.80
2018-02-07T05:11:06.019Z,-7.80
2018-02-07T05:12:10.146Z,-7.80
2018-02-07T05:13:05.591Z,-7.80
2018-02-07T05:14:05.963Z,-7.80
2018-02-07T05:15:09.653Z,-7.90
2018-02-07T05:16:10.415Z,-7.90
2018-02-07T05:17:05.992Z,-7.90
2018-02-07T05:18:05.210Z,-7.90
2018-02-07T05:19:08.485Z,-8.00
2018-02-07T05:20:10.516Z,-8.00
2018-02-07T05:21:06.014Z,-8.00
2018-02-07T05:22:05.991Z,-8.00
2018-02-07T05:23:05.490Z,-8.00
2018-02-07T05:24:06.483Z,-8.00
2018-02-07T05:25:05.792Z,-8.00
2018-02-07T05:26:05.617Z,-8.00
2018-02-07T05:27:05.137Z,-8.00
2018-02-07T05:28:06.042Z,-8.00
2018-02-07T05:29:07.968Z,-8.10
2018-02-07T05:30:05.394Z,-8.10
2018-02-07T05:31:05.448Z,-8.10
2018-02-07T05:32:06.191Z,-8.10
2018-02-07T05:33:05.939Z,-8.20
2018-02-07T05:34:07.809Z,-8.10
2018-02-07T05:35:05.529Z,-8.20
2018-02-07T05:36:08.585Z,-8.20
2018-02-07T05:37:06.133Z,-8.20
2018-02-07T05:38:05.840Z,-8.20
2018-02-07T05:39:06.174Z,-8.20
2018-02-07T05:40:08.541Z,-8.20
2018-02-07T05:41:06.315Z,-8.20
2018-02-07T05:42:10.985Z,-8.20
2018-02-07T05:43:08.536Z,-8.20
2018-02-07T05:44:08.564Z,-8.20
2018-02-07T05:45:13.682Z,-8.20
2018-02-07T05:46:11.200Z,-8.20
2018-02-07T05:47:05.945Z,-8.20
2018-02-07T05:48:05.368Z,-8.20
2018-02-07T05:49:05.447Z,-8.20
2018-02-07T05:50:05.282Z,-8.20
2018-02-07T05:51:05.848Z,-8.20
2018-02-07T05:52:05.599Z,-8.20
2018-02-07T05:53:05.321Z,-8.10
2018-02-07T05:54:05.681Z,-8.10
2018-02-07T05:55:08.641Z,-8.10
2018-02-07T05:56:05.926Z,-8.10
2018-02-07T05:57:05.522Z,-8.10
2018-02-07T05:58:08.361Z,-8.10
2018-02-07T05:59:05.914Z,-8.10
2018-02-07T06:00:05.649Z,-8.10
2018-02-07T06:01:05.518Z,-8.00
2018-02-07T06:02:06.241Z,-8.00
2018-02-07T06:03:05.633Z,-8.00
2018-02-07T06:04:08.010Z,-8.00
2018-02-07T06:05:05.455Z,-8.00
2018-02-07T06:06:09.424Z,-8.00
2018-02-07T06:07:06.329Z,-8.00
2018-02-07T06:08:06.198Z,8.00
2018-02-07T06:09:05.990Z,-8.00
2018-02-07T06:10:06.147Z,-7.90
2018-02-07T06:11:08.749Z,-7.90
2018-02-07T06:12:07.774Z,-7.90
2018-02-07T06:13:05.172Z,-7.90
2018-02-07T06:14:06.114Z,-7.90
2018-02-07T06:15:08.500Z,-7.90
2018-02-07T06:16:05.997Z,-7.90
2018-02-07T06:17:11.110Z,-7.90
2018-02-07T06:18:05.486Z,-7.90
2018-02-07T06:19:12.936Z,-7.90
2018-02-07T06:20:10.410Z,-7.90
2018-02-07T06:21:08.380Z,-7.90
2018-02-07T06:22:05.810Z,-7.90
2018-02-07T06:23:05.380Z,-7.80
2018-02-07T06:24:05.158Z,-7.80
2018-02-07T06:25:12.996Z,-7.80
2018-02-07T06:26:08.562Z,-7.80
2018-02-07T06:27:06.106Z,-7.80
2018-02-07T06:28:10.368Z,-7.80
2018-02-07T06:29:08.408Z,-7.80
2018-02-07T06:30:06.050Z,-7.80
2018-02-07T06:31:06.157Z,-7.80
2018-02-07T06:32:07.769Z,-7.80
2018-02-07T06:33:05.300Z,-7.80
2018-02-07T06:34:10.561Z,-7.80
2018-02-07T06:35:05.366Z,-7.80
2018-02-07T06:36:05.282Z,-7.80
2018-02-07T06:37:05.397Z,-7.80
2018-02-07T06:38:05.575Z,-7.80
2018-02-07T06:39:05.541Z,-7.80
2018-02-07T06:40:06.162Z,-7.80
2018-02-07T06:41:10.605Z,-7.80
2018-02-07T06:42:10.753Z,-7.80
2018-02-07T06:43:05.288Z,-7.80
2018-02-07T06:44:05.491Z,-7.80
2018-02-07T06:45:08.470Z,-7.70
2018-02-07T06:46:10.593Z,-7.70
2018-02-07T06:47:06.173Z,-7.70
2018-02-07T06:48:05.999Z,-7.70
2018-02-07T06:49:05.488Z,-7.70
2018-02-07T06:50:06.066Z,-7.70
2018-02-07T06:51:05.865Z,-7.70
2018-02-07T06:52:05.614Z,-7.70
2018-02-07T06:53:05.157Z,-7.60
2018-02-07T06:54:07.788Z,-7.60
2018-02-07T06:55:05.196Z,-7.60
2018-02-07T06:56:05.453Z,-7.60
2018-02-07T06:57:05.819Z,-7.60
2018-02-07T06:58:05.454Z,-7.60
2018-02-07T06:59:05.147Z,-7.60
2018-02-07T07:00:06.236Z,-7.60
2018-02-07T07:01:09.257Z,-7.50
2018-02-07T07:02:05.981Z,-7.50
2018-02-07T07:03:11.289Z,-7.50
2018-02-07T07:04:05.736Z,-7.50
2018-02-07T07:05:05.227Z,-7.50
2018-02-07T07:06:05.736Z,-7.50
2018-02-07T07:07:09.137Z,-7.40
2018-02-07T07:08:05.654Z,-7.40
2018-02-07T07:09:05.308Z,-7.40
2018-02-07T07:10:05.976Z,-7.40
2018-02-07T07:11:05.538Z,-7.40
2018-02-07T07:12:08.555Z,-7.40
2018-02-07T07:13:08.649Z,-7.30
2018-02-07T07:14:05.237Z,-7.30
2018-02-07T07:15:07.933Z,-7.30
2018-02-07T07:16:09.791Z,-7.30
2018-02-07T07:17:07.813Z,-7.30
2018-02-07T07:18:05.608Z,-7.30
2018-02-07T07:19:05.857Z,-7.30
2018-02-07T07:20:05.935Z,-7.20
2018-02-07T07:21:07.982Z,-7.20
2018-02-07T07:22:13.379Z,-7.20
2018-02-07T07:23:06.151Z,-7.20
2018-02-07T07:24:06.151Z,-7.20
2018-02-07T07:25:11.199Z,-7.20
2018-02-07T07:26:11.144Z,-7.20
2018-02-07T07:27:10.547Z,-7.20
2018-02-07T07:28:08.269Z,-7.10
2018-02-07T07:29:05.813Z,-7.10
2018-02-07T07:30:08.507Z,-7.10
2018-02-07T07:31:10.292Z,-7.00
2018-02-07T07:32:05.911Z,-7.00
2018-02-07T07:33:08.624Z,-7.00
2018-02-07T07:34:05.445Z,-7.00
2018-02-07T07:35:06.100Z,-7.00
2018-02-07T07:36:06.069Z,-7.00
2018-02-07T07:37:07.951Z,-7.00
2018-02-07T07:38:08.863Z,-7.00
2018-02-07T07:39:05.301Z,-7.00
2018-02-07T07:40:06.069Z,-7.00
2018-02-07T07:41:11.071Z,-7.00
2018-02-07T07:42:05.522Z,-7.00
2018-02-07T07:43:06.285Z,-6.90
2018-02-07T07:44:05.492Z,-6.90
2018-02-07T07:45:05.461Z,-6.90
2018-02-07T07:46:08.096Z,-6.90
2018-02-07T07:47:05.831Z,-6.90
2018-02-07T07:48:05.930Z,-6.90
2018-02-07T07:49:05.994Z,-6.90
2018-02-07T07:50:05.568Z,-6.80
2018-02-07T07:51:05.319Z,-6.80
2018-02-07T07:52:06.273Z,-6.80
2018-02-07T07:53:05.992Z,-6.80
2018-02-07T07:54:05.603Z,-6.80
2018-02-07T07:55:05.673Z,-6.80
2018-02-07T07:56:08.940Z,-6.70
2018-02-07T07:57:10.779Z,-6.70
2018-02-07T07:58:05.381Z,-6.70
2018-02-07T07:59:05.348Z,-6.70
2018-02-07T08:00:05.291Z,-6.70
2018-02-07T08:01:06.358Z,-6.60
2018-02-07T08:02:07.976Z,-6.60
2018-02-07T08:03:05.513Z,-6.60
2018-02-07T08:04:08.008Z,-6.60
2018-02-07T08:05:08.048Z,-6.60
2018-02-07T08:06:05.437Z,-6.60
2018-02-07T08:07:11.095Z,-6.60
2018-02-07T08:08:05.617Z,-6.60
2018-02-07T08:09:05.895Z,-6.60
2018-02-07T08:10:11.228Z,-6.60
2018-02-07T08:11:06.002Z,-6.60
2018-02-07T08:12:05.485Z,-6.60
2018-02-07T08:13:05.504Z,-6.60
2018-02-07T08:14:05.429Z,-6.60
2018-02-07T08:15:06.045Z,-6.50
2018-02-07T08:16:15.862Z,-6.50
2018-02-07T08:17:05.456Z,-6.50
2018-02-07T08:18:08.925Z,-6.50
2018-02-07T08:19:05.388Z,-6.50
2018-02-07T08:20:08.434Z,-6.50
2018-02-07T08:21:05.890Z,-6.50
2018-02-07T08:22:06.092Z,-6.50
2018-02-07T08:23:06.106Z,-6.50
2018-02-07T08:24:07.720Z,-6.60
2018-02-07T08:25:05.313Z,-6.50
2018-02-07T08:26:05.607Z,-6.50
2018-02-07T08:27:05.654Z,-6.50
2018-02-07T08:28:06.212Z,-6.50
2018-02-07T08:29:05.778Z,-6.50
2018-02-07T08:30:05.833Z,-6.50
2018-02-07T08:31:09.065Z,-6.50
2018-02-07T08:32:05.634Z,-6.50
2018-02-07T08:33:05.950Z,-6.50
2018-02-07T08:34:05.580Z,-6.50
2018-02-07T08:35:05.273Z,-6.50
2018-02-07T08:36:05.465Z,-6.50
2018-02-07T08:37:06.168Z,-6.50
2018-02-07T08:38:05.188Z,-6.50
2018-02-07T08:39:08.278Z,-6.40
2018-02-07T08:40:05.654Z,-6.40
2018-02-07T08:41:10.819Z,-6.40
2018-02-07T08:42:05.299Z,-6.40
2018-02-07T08:43:06.006Z,-6.40
2018-02-07T08:44:08.398Z,-6.40
2018-02-07T08:45:10.998Z,-6.40
2018-02-07T08:46:05.388Z,-6.30
2018-02-07T08:47:05.609Z,-6.30
2018-02-07T08:48:05.379Z,-6.30
2018-02-07T08:49:06.464Z,-6.30
2018-02-07T08:50:05.715Z,-6.30
2018-02-07T08:51:08.709Z,-6.20
2018-02-07T08:52:05.114Z,-6.20
2018-02-07T08:53:06.168Z,-6.20
2018-02-07T08:54:05.347Z,-6.20
2018-02-07T08:55:05.888Z,-6.10
2018-02-07T08:56:09.818Z,-6.10
2018-02-07T08:57:10.276Z,-6.10
2018-02-07T08:58:05.700Z,-6.00
2018-02-07T08:59:05.785Z,-6.00
2018-02-07T09:00:09.706Z,-6.00
2018-02-07T09:01:05.251Z,-6.00
2018-02-07T09:02:05.972Z,-5.90
2018-02-07T09:03:06.135Z,-5.90
2018-02-07T09:04:05.809Z,-5.90
2018-02-07T09:05:06.218Z,-5.80
2018-02-07T09:06:05.751Z,-5.80
2018-02-07T09:07:06.374Z,-5.80
2018-02-07T09:08:08.327Z,-5.70
2018-02-07T09:09:05.903Z,-5.70
2018-02-07T09:10:05.902Z,-5.60
2018-02-07T09:11:08.578Z,-5.60
2018-02-07T09:12:06.172Z,-5.60
2018-02-07T09:13:06.083Z,-5.60
2018-02-07T09:14:08.017Z,-5.50
2018-02-07T09:15:05.405Z,-5.60
2018-02-07T09:16:05.723Z,-5.50
2018-02-07T09:17:08.906Z,-5.50
2018-02-07T09:18:08.011Z,-5.50
2018-02-07T09:19:05.715Z,-5.50
2018-02-07T09:20:05.850Z,-5.40
2018-02-07T09:21:10.803Z,-5.40
2018-02-07T09:22:07.753Z,-5.30
2018-02-07T09:23:05.262Z,-5.30
2018-02-07T09:24:06.263Z,-5.30
2018-02-07T09:25:08.676Z,-5.30
2018-02-07T09:26:10.380Z,-5.30
2018-02-07T09:27:08.524Z,-5.20
2018-02-07T09:28:08.605Z,-5.20
2018-02-07T09:29:09.233Z,-5.20
2018-02-07T09:30:10.814Z,-5.20
2018-02-07T09:31:05.221Z,-5.10
2018-02-07T09:32:06.137Z,-5.10
2018-02-07T09:33:05.507Z,-5.10
2018-02-07T09:34:05.528Z,-5.00
2018-02-07T09:35:05.877Z,-5.00
2018-02-07T09:36:05.828Z,-4.90
2018-02-07T09:37:08.570Z,-4.90
2018-02-07T09:38:06.687Z,-4.90
2018-02-07T09:39:05.420Z,-4.90
2018-02-07T09:40:11.035Z,-4.80
2018-02-07T09:41:05.275Z,-4.80
2018-02-07T09:42:05.290Z,-4.80
2018-02-07T09:43:07.909Z,-4.70
2018-02-07T09:44:05.675Z,-4.70
2018-02-07T09:45:10.402Z,-4.70
2018-02-07T09:46:11.196Z,-4.60
2018-02-07T09:47:08.300Z,-4.60
2018-02-07T09:48:05.815Z,-4.60
2018-02-07T09:49:05.970Z,-4.50
2018-02-07T09:50:10.423Z,-4.50
2018-02-07T09:51:08.525Z,-4.50
2018-02-07T09:52:06.259Z,-4.50
2018-02-07T09:53:07.936Z,-4.40
2018-02-07T09:54:10.432Z,-4.40
2018-02-07T09:55:08.756Z,-4.40
2018-02-07T09:56:13.014Z,-4.30
2018-02-07T09:57:07.977Z,-4.30
2018-02-07T09:58:05.470Z,-4.30
2018-02-07T09:59:05.717Z,-4.30
2018-02-07T10:00:05.826Z,-4.30
2018-02-07T10:01:10.792Z,-4.20
2018-02-07T10:02:10.277Z,-4.20
2018-02-07T10:03:05.702Z,-4.20
2018-02-07T10:04:08.948Z,-4.20
2018-02-07T10:05:10.557Z,-4.10
2018-02-07T10:06:11.224Z,-4.10
2018-02-07T10:07:07.929Z,-4.10
2018-02-07T10:08:07.946Z,-4.00
2018-02-07T10:09:05.356Z,-4.00
2018-02-07T10:10:05.295Z,-4.00
2018-02-07T10:11:05.220Z,-4.00
2018-02-07T10:12:09.404Z,-3.90
2018-02-07T10:13:05.886Z,-3.90
2018-02-07T10:14:05.328Z,-3.90
2018-02-07T10:15:10.586Z,-3.80
2018-02-07T10:16:08.707Z,-3.80
2018-02-07T10:17:05.187Z,-3.80
2018-02-07T10:18:05.943Z,-3.80
2018-02-07T10:19:08.716Z,-3.70
2018-02-07T10:20:05.288Z,-3.70
2018-02-07T10:21:05.880Z,-3.60
2018-02-07T10:22:05.777Z,-3.60
2018-02-07T10:23:10.743Z,-3.50
2018-02-07T10:24:10.873Z,-3.50
2018-02-07T10:25:05.829Z,-3.50
2018-02-07T10:26:05.281Z,-3.50
2018-02-07T10:27:05.193Z,-3.40
2018-02-07T10:28:08.496Z,-3.40
2018-02-07T10:29:06.118Z,-3.40
2018-02-07T10:30:05.554Z,-3.30
2018-02-07T10:31:09.618Z,-3.30
2018-02-07T10:32:09.245Z,-3.30
2018-02-07T10:33:05.567Z,-3.30
2018-02-07T10:34:06.086Z,-3.30
2018-02-07T10:35:05.734Z,-3.30
2018-02-07T10:36:08.195Z,-3.20
2018-02-07T10:37:13.602Z,-3.20
2018-02-07T10:38:06.097Z,-3.20
2018-02-07T10:39:07.874Z,-3.20
2018-02-07T10:40:05.392Z,-3.20
2018-02-07T10:41:05.574Z,-3.20
2018-02-07T10:42:05.659Z,-3.20
2018-02-07T10:43:11.693Z,-3.20
2018-02-07T10:44:05.100Z,-3.20
2018-02-07T10:45:06.066Z,-3.20
2018-02-07T10:46:05.625Z,-3.20
2018-02-07T10:47:10.388Z,-3.20
2018-02-07T10:48:08.493Z,-3.10
2018-02-07T10:49:07.950Z,-3.10
2018-02-07T10:50:05.515Z,-3.10
2018-02-07T10:51:10.559Z,-3.10
2018-02-07T10:52:05.993Z,-3.00
2018-02-07T10:53:11.062Z,-3.00
2018-02-07T10:54:08.268Z,-3.00
2018-02-07T10:55:10.929Z,-3.00
2018-02-07T10:56:05.438Z,-3.00
2018-02-07T10:57:11.187Z,-2.90
2018-02-07T10:58:05.911Z,-3.00
2018-02-07T10:59:05.497Z,-2.90
2018-02-07T11:00:06.107Z,-2.90
2018-02-07T11:01:06.409Z,-2.90
2018-02-07T11:02:05.902Z,-2.80
2018-02-07T11:03:05.226Z,-2.80
2018-02-07T11:04:05.753Z,-2.80
2018-02-07T11:05:05.453Z,-2.80
2018-02-07T11:06:06.506Z,-2.80
2018-02-07T11:07:11.162Z,-2.80
2018-02-07T11:08:05.708Z,-2.80
2018-02-07T11:09:05.576Z,-2.80
2018-02-07T11:10:08.147Z,-2.70
2018-02-07T11:11:05.653Z,-2.80
2018-02-07T11:12:05.886Z,-2.70
2018-02-07T11:13:08.037Z,-2.70
2018-02-07T11:14:05.953Z,-2.70
2018-02-07T11:15:09.530Z,-2.60
2018-02-07T11:16:08.541Z,-2.60
2018-02-07T11:17:05.679Z,-2.60
2018-02-07T11:18:05.434Z,-2.50
2018-02-07T11:19:09.942Z,-2.50
2018-02-07T11:20:05.710Z,-2.50
2018-02-07T11:21:05.748Z,-2.40
2018-02-07T11:22:07.726Z,-2.30
2018-02-07T11:23:06.122Z,-2.30
2018-02-07T11:24:05.537Z,-2.30
2018-02-07T11:25:06.020Z,-2.20
2018-02-07T11:26:05.534Z,-2.20
2018-02-07T11:27:05.642Z,-2.20
2018-02-07T11:28:05.591Z,-2.10
2018-02-07T11:29:05.553Z,-2.10
2018-02-07T11:30:08.605Z,-2.10
2018-02-07T11:31:06.116Z,-2.10
2018-02-07T11:32:05.767Z,-2.00
2018-02-07T11:33:05.282Z,-2.00
2018-02-07T11:34:05.750Z,-2.00
2018-02-07T11:35:08.766Z,-1.90
2018-02-07T11:36:07.971Z,-1.90
2018-02-07T11:37:05.483Z,-1.90
2018-02-07T11:38:08.888Z,-1.80
2018-02-07T11:39:10.510Z,-1.80
2018-02-07T11:40:05.732Z,-1.80
2018-02-07T11:41:05.293Z,-1.70
2018-02-07T11:42:05.131Z,-1.70
2018-02-07T11:43:07.991Z,-1.70
2018-02-07T11:44:08.255Z,-1.70
2018-02-07T11:45:05.932Z,-1.60
2018-02-07T11:46:10.446Z,-1.60
2018-02-07T11:47:05.968Z,-1.60
2018-02-07T11:48:08.378Z,-1.60
2018-02-07T11:49:08.320Z,-1.60
2018-02-07T11:50:05.960Z,-1.60
2018-02-07T11:51:08.970Z,-1.50
2018-02-07T11:52:05.427Z,-1.50
2018-02-07T11:53:05.252Z,-1.50
2018-02-07T11:54:10.342Z,-1.50
2018-02-07T11:55:08.375Z,-1.50
2018-02-07T11:56:05.922Z,-1.40
2018-02-07T11:57:05.760Z,-1.40
2018-02-07T11:58:05.284Z,-1.40
2018-02-07T11:59:09.348Z,-1.40
2018-02-07T12:00:09.476Z,-1.40
2018-02-07T12:01:08.589Z,-1.40
2018-02-07T12:02:06.239Z,-1.40
2018-02-07T12:03:07.840Z,-1.30
2018-02-07T12:04:10.374Z,-1.30
2018-02-07T12:05:09.659Z,-1.30
2018-02-07T12:06:05.241Z,-1.20
2018-02-07T12:07:06.328Z,-1.30
2018-02-07T12:08:08.353Z,-1.20
2018-02-07T12:09:05.874Z,-1.20
2018-02-07T12:10:05.854Z,-1.20
2018-02-07T12:11:11.164Z,-1.20
2018-02-07T12:12:08.830Z,-1.10
2018-02-07T12:13:05.373Z,-1.10
2018-02-07T12:14:05.408Z,-1.10
2018-02-07T12:15:05.944Z,-1.10
2018-02-07T12:16:05.298Z,-1.10
2018-02-07T12:17:11.112Z,-1.10
2018-02-07T12:18:05.427Z,-1.10
2018-02-07T12:19:05.172Z,-1.00
2018-02-07T12:20:11.043Z,-1.10
2018-02-07T12:21:08.165Z,-1.00
2018-02-07T12:22:05.718Z,-1.00
2018-02-07T12:23:05.435Z,-1.00
2018-02-07T12:24:08.321Z,-1.10
2018-02-07T12:25:10.582Z,-1.00
2018-02-07T12:26:06.025Z,-1.10
2018-02-07T12:27:10.845Z,-1.00
2018-02-07T12:28:05.346Z,-1.00
2018-02-07T12:29:08.728Z,-1.00
2018-02-07T12:30:05.417Z,-1.00
2018-02-07T12:31:10.914Z,-0.90
2018-02-07T12:32:10.729Z,-0.90
2018-02-07T12:33:05.585Z,-0.90
2018-02-07T12:34:09.458Z,-0.80
2018-02-07T12:35:08.519Z,-0.80
2018-02-07T12:36:05.921Z,-0.80
2018-02-07T12:37:05.413Z,-0.80
2018-02-07T12:38:06.122Z,-0.80
2018-02-07T12:39:08.208Z,-0.70
2018-02-07T12:40:10.209Z,-0.70
2018-02-07T12:41:08.306Z,-0.70
2018-02-07T12:42:10.788Z,-0.60
2018-02-07T12:43:07.844Z,-0.60
2018-02-07T12:44:05.278Z,-0.60
2018-02-07T12:45:05.992Z,-0.60
2018-02-07T12:46:08.664Z,-0.50
2018-02-07T12:47:06.220Z,-0.50
2018-02-07T12:48:07.839Z,-0.50
2018-02-07T12:49:05.350Z,-0.60
2018-02-07T12:50:05.491Z,-0.50
2018-02-07T12:51:05.857Z,-0.50
2018-02-07T12:52:06.088Z,-0.50